createdAt,value
2022-08-26T00:03:14.514Z,13.5
2022-08-26T00:33:17.658Z,13.3
2022-08-26T01:03:21.558Z,13.2
2022-08-26T01:33:31.800Z,12.9
2022-08-26T02:03:31.841Z,12.5
2022-08-26T02:33:34.586Z,12.4
2022-08-26T03:03:37.753Z,12.2
2022-08-26T03:33:39.643Z,11.9
2022-08-26T04:03:42.626Z,11.7
2022-08-26T04:33:45.160Z,11.5
2022-08-26T05:03:45.000Z,11.5
2022-08-26T05:33:47.153Z,11.8
2022-08-26T06:03:48.000Z,12.8
2022-08-26T06:33:49.000Z,13.8
2022-08-26T07:03:50.000Z,15.3
2022-08-26T07:33:54.000Z,17.5
2022-08-26T08:04:03.000Z,22.3
2022-08-26T08:34:07.000Z,24.7
2022-08-26T09:04:08.000Z,27.1
2022-08-26T09:34:12.000Z,28.5
2022-08-26T10:04:20.000Z,29.3
2022-08-26T10:34:25.000Z,30.4
2022-08-26T11:04:28.000Z,31.3
2022-08-26T11:34:34.000Z,30.4
2022-08-26T11:37:32.000Z,30.1
2022-08-26T12:07:35.000Z,29.2
2022-08-26T12:37:37.000Z,27.9
2022-08-26T13:07:50.000Z,30.6
2022-08-26T13:37:54.000Z,29.6
2022-08-26T14:08:05.000Z,28.4
2022-08-26T14:38:15.000Z,27.8
2022-08-26T15:08:22.000Z,27.9
2022-08-26T15:38:32.000Z,27.3
2022-08-26T16:08:37.000Z,26.4
2022-08-26T16:38:39.000Z,25.7
2022-08-26T17:08:41.000Z,24.9
2022-08-26T17:38:45.000Z,23.7
2022-08-26T18:08:47.000Z,22.5
2022-08-26T18:38:48.219Z,21.4
2022-08-26T19:08:50.233Z,20
2022-08-26T19:38:52.000Z,18.9
2022-08-26T20:08:55.000Z,18.9
2022-08-26T20:39:07.000Z,18.8
2022-08-26T21:09:07.000Z,18.3
2022-08-26T21:39:09.000Z,17.4
2022-08-26T22:09:18.000Z,16.9
2022-08-26T22:39:21.000Z,17.0
2022-08-26T23:09:24.000Z,17.4
2022-08-26T23:39:26.000Z,17.6
